CheckWX is a tool to help pilots better visualize weather data.  It is not intended as a substitute for an official pre-flight weather briefing.

01:54:32 UTC

DNAK TAF
Akure Airport
Akure, Nigeria
TAF DNAK 182155Z 1900/2006 VRB02KT 9999 FEW011 PROB30 TEMPO 1900/1906 TS FEW011 FEW020CB BECMG 1908/1910 21010KT BKN013 FEW020CB

Mar-19@
00:00 UTC

Mar-19 @ 00:00 UTC

Mar-19@
08:00 UTC

Mar-19 @ 08:00 UTC

TAF DNAK 182155Z 1900/2006 VRB02KT 9999 FEW011
Wind
  • Variable at 2 KTS
Cloud Levels
  • Few at 1,100' AGL

Mar-19@
00:00 UTC

Mar-19 @ 00:00 UTC

Mar-19@
06:00 UTC

Mar-19 @ 06:00 UTC

PROB30 TEMPO 1900/1906 TS FEW011 FEW020CB

Temporary - 30% Likelihood

Temporary - 30% Likelihood during this time.

Conditions
Thunderstorm
Cloud Levels
  • Few at 1,100' AGL
  • Few at 2,000' AGL

Mar-19@
08:00 UTC

Mar-19 @ 08:00 UTC

Mar-20@
06:00 UTC

Mar-20 @ 06:00 UTC

BECMG 1908/1910 21010KT BKN013 FEW020CB

Becoming

Becoming Conditions expected by Tue, Mar 19, 2019 @ 10:00 UTC

Wind
  • 210° at 10 KTS
Cloud Levels
  • Broken at 1,300' AGL
  • Few at 2,000' AGL